sensor_id;sensor_type;location;lat;lon;timestamp;pressure;altitude;pressure_sealevel;temperature;humidity
71907;BME280;59781;52.090;5.030;2022-09-09T00:01:27;100689.94;;;15.74;92.42
71907;BME280;59781;52.090;5.030;2022-09-09T00:07:09;100698.84;;;15.48;94.11
71907;BME280;59781;52.090;5.030;2022-09-09T00:13:34;100698.03;;;15.61;93.63
71907;BME280;59781;52.090;5.030;2022-09-09T00:16:22;100697.34;;;15.32;95.10
71907;BME280;59781;52.090;5.030;2022-09-09T00:19:07;100695.03;;;15.16;96.69
71907;BME280;59781;52.090;5.030;2022-09-09T00:22:16;100696.16;;;15.55;94.25
71907;BME280;59781;52.090;5.030;2022-09-09T00:24:54;100705.47;;;15.19;97.05
71907;BME280;59781;52.090;5.030;2022-09-09T00:27:43;100694.88;;;15.37;95.75
71907;BME280;59781;52.090;5.030;2022-09-09T00:30:24;100693.59;;;15.27;95.38
71907;BME280;59781;52.090;5.030;2022-09-09T00:33:08;100691.47;;;15.15;96.70
71907;BME280;59781;52.090;5.030;2022-09-09T00:35:41;100689.34;;;14.98;97.05
71907;BME280;59781;52.090;5.030;2022-09-09T00:50:12;100707.78;;;14.74;100.00
71907;BME280;59781;52.090;5.030;2022-09-09T00:55:33;100695.94;;;14.82;98.90
71907;BME280;59781;52.090;5.030;2022-09-09T00:58:01;100694.63;;;15.26;94.85
71907;BME280;59781;52.090;5.030;2022-09-09T01:00:29;100693.09;;;14.97;96.88
71907;BME280;59781;52.090;5.030;2022-09-09T01:03:20;100694.09;;;14.89;96.95
71907;BME280;59781;52.090;5.030;2022-09-09T01:12:23;100686.94;;;14.68;99.32
71907;BME280;59781;52.090;5.030;2022-09-09T01:15:07;100685.09;;;14.75;98.15
71907;BME280;59781;52.090;5.030;2022-09-09T01:29:21;100684.47;;;14.80;97.04
71907;BME280;59781;52.090;5.030;2022-09-09T01:32:00;100681.28;;;14.70;97.43
71907;BME280;59781;52.090;5.030;2022-09-09T01:34:38;100679.00;;;14.67;97.67
71907;BME280;59781;52.090;5.030;2022-09-09T01:37:08;100677.97;;;14.68;97.03
71907;BME280;59781;52.090;5.030;2022-09-09T01:39:41;100677.75;;;14.69;97.45
71907;BME280;59781;52.090;5.030;2022-09-09T01:42:16;100674.03;;;14.35;99.47
71907;BME280;59781;52.090;5.030;2022-09-09T01:44:43;100665.03;;;14.70;97.81
71907;BME280;59781;52.090;5.030;2022-09-09T01:47:09;100662.81;;;14.45;98.30
71907;BME280;59781;52.090;5.030;2022-09-09T01:49:50;100665.34;;;14.47;99.94
71907;BME280;59781;52.090;5.030;2022-09-09T01:52:21;100657.44;;;14.52;98.27
71907;BME280;59781;52.090;5.030;2022-09-09T01:54:47;100659.56;;;14.63;97.58
71907;BME280;59781;52.090;5.030;2022-09-09T01:57:24;100657.44;;;14.52;98.31
71907;BME280;59781;52.090;5.030;2022-09-09T02:00:07;100657.78;;;14.42;99.04
71907;BME280;59781;52.090;5.030;2022-09-09T02:06:37;100647.53;;;14.72;96.68
71907;BME280;59781;52.090;5.030;2022-09-09T02:09:24;100646.03;;;14.56;98.06
71907;BME280;59781;52.090;5.030;2022-09-09T02:12:01;100650.66;;;14.69;97.27
71907;BME280;59781;52.090;5.030;2022-09-09T02:14:55;100653.31;;;14.56;97.71
71907;BME280;59781;52.090;5.030;2022-09-09T02:17:36;100652.09;;;14.72;97.26
71907;BME280;59781;52.090;5.030;2022-09-09T02:20:13;100647.72;;;14.71;97.63
71907;BME280;59781;52.090;5.030;2022-09-09T02:22:50;100650.69;;;14.76;96.78
71907;BME280;59781;52.090;5.030;2022-09-09T02:25:22;100659.13;;;14.53;99.04
71907;BME280;59781;52.090;5.030;2022-09-09T02:27:57;100646.06;;;14.70;97.60
71907;BME280;59781;52.090;5.030;2022-09-09T02:30:29;100647.94;;;14.69;97.17
71907;BME280;59781;52.090;5.030;2022-09-09T02:33:02;100647.97;;;14.76;96.80
71907;BME280;59781;52.090;5.030;2022-09-09T02:35:44;100641.22;;;14.58;97.95
71907;BME280;59781;52.090;5.030;2022-09-09T02:38:15;100645.56;;;14.46;98.72
71907;BME280;59781;52.090;5.030;2022-09-09T02:40:53;100634.53;;;14.54;98.75
71907;BME280;59781;52.090;5.030;2022-09-09T02:43:19;100637.97;;;14.76;97.06
71907;BME280;59781;52.090;5.030;2022-09-09T02:46:07;100638.13;;;14.75;97.26
71907;BME280;59781;52.090;5.030;2022-09-09T02:49:00;100634.03;;;14.85;95.78
71907;BME280;59781;52.090;5.030;2022-09-09T02:54:37;100626.63;;;14.59;98.44
71907;BME280;59781;52.090;5.030;2022-09-09T02:59:38;100632.81;;;14.95;96.15
71907;BME280;59781;52.090;5.030;2022-09-09T03:02:05;100634.84;;;14.38;98.60
71907;BME280;59781;52.090;5.030;2022-09-09T03:04:33;100628.81;;;14.90;96.89
71907;BME280;59781;52.090;5.030;2022-09-09T03:06:59;100622.75;;;14.75;96.80
71907;BME280;59781;52.090;5.030;2022-09-09T03:09:24;100630.00;;;14.68;96.87
71907;BME280;59781;52.090;5.030;2022-09-09T03:11:52;100623.13;;;14.72;96.99
71907;BME280;59781;52.090;5.030;2022-09-09T03:14:18;100625.41;;;14.69;96.85
71907;BME280;59781;52.090;5.030;2022-09-09T03:16:47;100622.88;;;14.60;98.17
71907;BME280;59781;52.090;5.030;2022-09-09T03:19:13;100619.53;;;14.58;97.94
71907;BME280;59781;52.090;5.030;2022-09-09T03:21:40;100622.66;;;14.62;97.46
71907;BME280;59781;52.090;5.030;2022-09-09T03:24:06;100623.13;;;14.72;96.77
71907;BME280;59781;52.090;5.030;2022-09-09T03:26:32;100623.75;;;14.68;97.26
71907;BME280;59781;52.090;5.030;2022-09-09T03:28:59;100627.50;;;14.67;96.91
71907;BME280;59781;52.090;5.030;2022-09-09T03:31:26;100623.19;;;14.44;98.42
71907;BME280;59781;52.090;5.030;2022-09-09T03:33:57;100622.47;;;14.22;100.00
71907;BME280;59781;52.090;5.030;2022-09-09T03:36:28;100617.09;;;14.29;99.52
71907;BME280;59781;52.090;5.030;2022-09-09T03:38:54;100626.09;;;14.36;99.53
71907;BME280;59781;52.090;5.030;2022-09-09T03:41:22;100618.81;;;14.43;98.53
71907;BME280;59781;52.090;5.030;2022-09-09T03:43:53;100624.59;;;14.33;99.75
71907;BME280;59781;52.090;5.030;2022-09-09T03:46:22;100615.88;;;14.38;98.98
71907;BME280;59781;52.090;5.030;2022-09-09T03:48:50;100618.56;;;14.31;99.36
71907;BME280;59781;52.090;5.030;2022-09-09T03:51:17;100623.38;;;14.36;98.57
71907;BME280;59781;52.090;5.030;2022-09-09T03:53:43;100625.44;;;14.34;98.84
71907;BME280;59781;52.090;5.030;2022-09-09T03:56:10;100631.47;;;14.29;98.64
71907;BME280;59781;52.090;5.030;2022-09-09T03:58:37;100617.41;;;14.47;97.78
71907;BME280;59781;52.090;5.030;2022-09-09T04:01:09;100618.94;;;14.70;95.76
71907;BME280;59781;52.090;5.030;2022-09-09T04:03:39;100603.38;;;14.44;97.44
71907;BME280;59781;52.090;5.030;2022-09-09T04:06:08;100609.38;;;14.32;98.20
71907;BME280;59781;52.090;5.030;2022-09-09T04:08:35;100604.53;;;14.21;99.01
71907;BME280;59781;52.090;5.030;2022-09-09T04:11:03;100607.28;;;14.28;98.63
71907;BME280;59781;52.090;5.030;2022-09-09T04:13:32;100603.34;;;14.30;97.53
71907;BME280;59781;52.090;5.030;2022-09-09T04:16:04;100606.94;;;14.38;97.57
71907;BME280;59781;52.090;5.030;2022-09-09T04:18:33;100608.13;;;14.35;97.21
71907;BME280;59781;52.090;5.030;2022-09-09T04:21:00;100611.06;;;14.33;98.00
71907;BME280;59781;52.090;5.030;2022-09-09T04:23:29;100606.84;;;14.24;99.17
71907;BME280;59781;52.090;5.030;2022-09-09T04:25:58;100590.22;;;14.34;97.49
71907;BME280;59781;52.090;5.030;2022-09-09T04:28:29;100583.59;;;14.43;97.17
71907;BME280;59781;52.090;5.030;2022-09-09T04:31:24;100582.13;;;14.41;98.11
71907;BME280;59781;52.090;5.030;2022-09-09T04:33:52;100585.41;;;14.29;98.26
71907;BME280;59781;52.090;5.030;2022-09-09T04:36:19;100573.38;;;14.39;97.31
71907;BME280;59781;52.090;5.030;2022-09-09T04:38:47;100579.59;;;14.32;97.97
71907;BME280;59781;52.090;5.030;2022-09-09T04:41:14;100589.00;;;14.37;97.54
71907;BME280;59781;52.090;5.030;2022-09-09T04:43:43;100587.09;;;14.30;98.02
71907;BME280;59781;52.090;5.030;2022-09-09T04:46:10;100586.28;;;14.37;97.62
71907;BME280;59781;52.090;5.030;2022-09-09T04:48:36;100586.25;;;14.30;98.22
71907;BME280;59781;52.090;5.030;2022-09-09T04:51:06;100585.47;;;14.36;97.90
71907;BME280;59781;52.090;5.030;2022-09-09T04:53:35;100585.41;;;14.29;98.74
71907;BME280;59781;52.090;5.030;2022-09-09T04:56:06;100581.63;;;14.17;98.88
71907;BME280;59781;52.090;5.030;2022-09-09T04:58:40;100580.22;;;14.28;99.13
71907;BME280;59781;52.090;5.030;2022-09-09T05:01:15;100577.94;;;14.38;98.34
71907;BME280;59781;52.090;5.030;2022-09-09T05:03:44;100572.03;;;14.21;99.14
71907;BME280;59781;52.090;5.030;2022-09-09T05:06:19;100576.56;;;14.49;97.45
71907;BME280;59781;52.090;5.030;2022-09-09T05:08:48;100581.25;;;14.33;98.25
71907;BME280;59781;52.090;5.030;2022-09-09T05:11:23;100574.19;;;14.39;98.22
71907;BME280;59781;52.090;5.030;2022-09-09T05:13:54;100576.38;;;14.09;100.00
71907;BME280;59781;52.090;5.030;2022-09-09T05:16:21;100585.38;;;14.23;99.66
71907;BME280;59781;52.090;5.030;2022-09-09T05:18:48;100574.53;;;14.23;99.84
71907;BME280;59781;52.090;5.030;2022-09-09T05:21:17;100578.72;;;14.25;100.00
71907;BME280;59781;52.090;5.030;2022-09-09T05:23:45;100570.00;;;14.30;99.96
71907;BME280;59781;52.090;5.030;2022-09-09T05:26:14;100573.50;;;14.24;100.00
71907;BME280;59781;52.090;5.030;2022-09-09T05:28:42;100565.78;;;14.21;100.00
71907;BME280;59781;52.090;5.030;2022-09-09T05:31:09;100565.66;;;14.35;99.95
71907;BME280;59781;52.090;5.030;2022-09-09T05:33:41;100568.78;;;14.39;100.00
71907;BME280;59781;52.090;5.030;2022-09-09T05:36:14;100573.34;;;14.32;100.00
71907;BME280;59781;52.090;5.030;2022-09-09T05:38:43;100570.44;;;14.40;99.69
71907;BME280;59781;52.090;5.030;2022-09-09T05:41:11;100576.56;;;14.49;99.81
71907;BME280;59781;52.090;5.030;2022-09-09T05:43:38;100577.66;;;14.68;97.80
71907;BME280;59781;52.090;5.030;2022-09-09T05:46:06;100574.69;;;14.49;98.60
71907;BME280;59781;52.090;5.030;2022-09-09T05:48:40;100579.69;;;14.52;99.24
71907;BME280;59781;52.090;5.030;2022-09-09T05:51:10;100577.88;;;14.66;98.35
71907;BME280;59781;52.090;5.030;2022-09-09T05:53:38;100578.91;;;14.65;98.48
71907;BME280;59781;52.090;5.030;2022-09-09T05:56:06;100576.88;;;14.87;97.49
71907;BME280;59781;52.090;5.030;2022-09-09T05:58:37;100575.59;;;14.70;99.02
71907;BME280;59781;52.090;5.030;2022-09-09T06:03:38;100578.50;;;14.68;99.03
71907;BME280;59781;52.090;5.030;2022-09-09T06:06:08;100566.44;;;14.77;99.03
71907;BME280;59781;52.090;5.030;2022-09-09T06:08:38;100582.53;;;15.32;96.14
71907;BME280;59781;52.090;5.030;2022-09-09T06:11:11;100573.56;;;15.77;91.81
71907;BME280;59781;52.090;5.030;2022-09-09T06:13:42;100565.38;;;16.49;87.96
71907;BME280;59781;52.090;5.030;2022-09-09T06:16:13;100570.41;;;16.90;85.07
71907;BME280;59781;52.090;5.030;2022-09-09T06:18:43;100564.47;;;16.61;86.11
71907;BME280;59781;52.090;5.030;2022-09-09T06:21:19;100575.97;;;16.12;89.27
71907;BME280;59781;52.090;5.030;2022-09-09T06:23:56;100575.56;;;16.15;90.11
71907;BME280;59781;52.090;5.030;2022-09-09T06:26:40;100574.16;;;15.99;90.17
71907;BME280;59781;52.090;5.030;2022-09-09T06:29:08;100575.81;;;16.07;90.05
71907;BME280;59781;52.090;5.030;2022-09-09T06:31:36;100569.16;;;15.90;91.15
71907;BME280;59781;52.090;5.030;2022-09-09T06:34:12;100565.25;;;15.66;93.13
71907;BME280;59781;52.090;5.030;2022-09-09T06:36:41;100569.63;;;15.67;93.16
71907;BME280;59781;52.090;5.030;2022-09-09T06:39:07;100561.66;;;15.78;92.63
71907;BME280;59781;52.090;5.030;2022-09-09T06:41:36;100555.81;;;16.84;86.99
71907;BME280;59781;52.090;5.030;2022-09-09T06:44:05;100554.75;;;17.42;83.21
71907;BME280;59781;52.090;5.030;2022-09-09T06:46:38;100554.53;;;18.42;77.64
71907;BME280;59781;52.090;5.030;2022-09-09T06:49:05;100560.66;;;18.37;78.70
71907;BME280;59781;52.090;5.030;2022-09-09T06:51:34;100561.97;;;18.34;78.00
71907;BME280;59781;52.090;5.030;2022-09-09T06:54:03;100558.81;;;18.19;78.54
71907;BME280;59781;52.090;5.030;2022-09-09T06:56:31;100565.72;;;17.29;83.57
71907;BME280;59781;52.090;5.030;2022-09-09T06:59:04;100563.66;;;16.61;87.61
71907;BME280;59781;52.090;5.030;2022-09-09T07:01:38;100562.66;;;16.55;88.54
71907;BME280;59781;52.090;5.030;2022-09-09T07:04:10;100573.03;;;16.27;89.39
71907;BME280;59781;52.090;5.030;2022-09-09T07:06:43;100563.72;;;16.48;89.14
71907;BME280;59781;52.090;5.030;2022-09-09T07:09:16;100560.47;;;16.77;86.79
71907;BME280;59781;52.090;5.030;2022-09-09T07:11:49;100568.34;;;16.47;88.83
71907;BME280;59781;52.090;5.030;2022-09-09T07:14:19;100558.19;;;16.68;87.88
71907;BME280;59781;52.090;5.030;2022-09-09T07:17:28;100557.00;;;16.50;88.07
71907;BME280;59781;52.090;5.030;2022-09-09T07:19:54;100564.22;;;16.31;89.04
71907;BME280;59781;52.090;5.030;2022-09-09T07:22:22;100571.38;;;16.64;87.84
71907;BME280;59781;52.090;5.030;2022-09-09T07:24:48;100569.50;;;16.64;86.50
71907;BME280;59781;52.090;5.030;2022-09-09T07:27:15;100572.06;;;16.53;87.23
71907;BME280;59781;52.090;5.030;2022-09-09T07:29:41;100573.47;;;16.69;87.29
71907;BME280;59781;52.090;5.030;2022-09-09T07:32:07;100556.75;;;16.72;86.41
71907;BME280;59781;52.090;5.030;2022-09-09T07:34:36;100568.22;;;16.74;86.06
71907;BME280;59781;52.090;5.030;2022-09-09T07:37:02;100566.16;;;16.62;87.15
71907;BME280;59781;52.090;5.030;2022-09-09T07:39:29;100566.22;;;16.94;85.61
71907;BME280;59781;52.090;5.030;2022-09-09T07:41:55;100568.38;;;16.85;85.84
71907;BME280;59781;52.090;5.030;2022-09-09T07:44:24;100579.78;;;16.62;86.39
71907;BME280;59781;52.090;5.030;2022-09-09T07:46:57;100580.31;;;16.84;85.81
71907;BME280;59781;52.090;5.030;2022-09-09T07:49:29;100584.56;;;16.60;86.96
71907;BME280;59781;52.090;5.030;2022-09-09T07:51:55;100577.06;;;16.62;87.37
71907;BME280;59781;52.090;5.030;2022-09-09T07:54:21;100569.91;;;16.61;86.73
71907;BME280;59781;52.090;5.030;2022-09-09T07:56:50;100576.41;;;16.60;87.27
71907;BME280;59781;52.090;5.030;2022-09-09T07:59:18;100575.84;;;16.52;86.89
71907;BME280;59781;52.090;5.030;2022-09-09T08:01:49;100572.00;;;16.66;86.66
71907;BME280;59781;52.090;5.030;2022-09-09T08:04:21;100575.72;;;16.78;85.89
71907;BME280;59781;52.090;5.030;2022-09-09T08:06:58;100577.34;;;17.17;84.70
71907;BME280;59781;52.090;5.030;2022-09-09T08:09:28;100570.41;;;17.46;82.60
71907;BME280;59781;52.090;5.030;2022-09-09T08:11:59;100569.84;;;17.38;82.85
71907;BME280;59781;52.090;5.030;2022-09-09T08:14:26;100567.91;;;17.45;82.05
71907;BME280;59781;52.090;5.030;2022-09-09T08:16:54;100576.06;;;17.45;81.84
71907;BME280;59781;52.090;5.030;2022-09-09T08:19:22;100560.44;;;17.40;81.27
71907;BME280;59781;52.090;5.030;2022-09-09T08:21:49;100570.69;;;17.13;82.71
71907;BME280;59781;52.090;5.030;2022-09-09T08:24:15;100570.91;;;17.12;82.99
71907;BME280;59781;52.090;5.030;2022-09-09T08:26:47;100574.53;;;16.99;83.89
71907;BME280;59781;52.090;5.030;2022-09-09T08:29:20;100573.53;;;17.25;82.81
71907;BME280;59781;52.090;5.030;2022-09-09T08:31:52;100574.72;;;17.29;82.05
71907;BME280;59781;52.090;5.030;2022-09-09T08:34:21;100594.69;;;17.23;82.65
71907;BME280;59781;52.090;5.030;2022-09-09T08:36:52;100578.78;;;17.20;82.26
71907;BME280;59781;52.090;5.030;2022-09-09T08:39:23;100580.13;;;17.11;82.91
71907;BME280;59781;52.090;5.030;2022-09-09T08:48:08;100595.06;;;17.02;83.45
71907;BME280;59781;52.090;5.030;2022-09-09T08:50:49;100597.19;;;16.93;84.12
71907;BME280;59781;52.090;5.030;2022-09-09T08:53:30;100597.31;;;17.05;83.55
71907;BME280;59781;52.090;5.030;2022-09-09T08:56:18;100595.13;;;16.88;84.45
71907;BME280;59781;52.090;5.030;2022-09-09T08:58:54;100591.75;;;17.25;82.68
71907;BME280;59781;52.090;5.030;2022-09-09T09:01:55;100592.38;;;17.20;82.16
71907;BME280;59781;52.090;5.030;2022-09-09T09:05:10;100589.03;;;16.93;83.99
71907;BME280;59781;52.090;5.030;2022-09-09T09:10:48;100596.06;;;17.01;83.96
71907;BME280;59781;52.090;5.030;2022-09-09T09:13:34;100599.69;;;16.95;83.64
71907;BME280;59781;52.090;5.030;2022-09-09T09:19:17;100603.72;;;16.85;83.81
71907;BME280;59781;52.090;5.030;2022-09-09T09:25:00;100603.53;;;16.80;85.12
71907;BME280;59781;52.090;5.030;2022-09-09T09:28:00;100608.72;;;16.88;86.00
71907;BME280;59781;52.090;5.030;2022-09-09T09:30:40;100613.47;;;17.00;86.11
71907;BME280;59781;52.090;5.030;2022-09-09T09:33:31;100605.63;;;16.78;87.19
71907;BME280;59781;52.090;5.030;2022-09-09T09:36:02;100604.22;;;16.69;87.13
71907;BME280;59781;52.090;5.030;2022-09-09T09:38:30;100610.84;;;16.80;86.78
71907;BME280;59781;52.090;5.030;2022-09-09T09:40:59;100607.41;;;16.98;87.24
71907;BME280;59781;52.090;5.030;2022-09-09T09:43:35;100601.38;;;17.20;84.50
71907;BME280;59781;52.090;5.030;2022-09-09T09:46:20;100608.81;;;17.07;84.83
71907;BME280;59781;52.090;5.030;2022-09-09T09:49:01;100606.91;;;17.14;83.74
71907;BME280;59781;52.090;5.030;2022-09-09T09:51:33;100605.97;;;17.27;83.70
71907;BME280;59781;52.090;5.030;2022-09-09T09:54:14;100601.94;;;17.29;83.34
71907;BME280;59781;52.090;5.030;2022-09-09T09:56:45;100596.31;;;17.31;83.97
71907;BME280;59781;52.090;5.030;2022-09-09T10:02:24;100602.06;;;17.66;81.38
71907;BME280;59781;52.090;5.030;2022-09-09T10:05:15;100607.66;;;17.53;82.15
71907;BME280;59781;52.090;5.030;2022-09-09T10:16:55;100607.41;;;16.53;98.60
71907;BME280;59781;52.090;5.030;2022-09-09T10:19:37;100610.22;;;16.84;96.37
71907;BME280;59781;52.090;5.030;2022-09-09T10:22:27;100606.22;;;17.18;96.19
71907;BME280;59781;52.090;5.030;2022-09-09T10:25:19;100602.38;;;17.83;94.55
71907;BME280;59781;52.090;5.030;2022-09-09T10:28:17;100605.94;;;17.83;93.37
71907;BME280;59781;52.090;5.030;2022-09-09T10:36:19;100594.25;;;17.76;89.58
71907;BME280;59781;52.090;5.030;2022-09-09T10:44:40;100589.97;;;17.37;88.27
71907;BME280;59781;52.090;5.030;2022-09-09T10:51:22;100590.75;;;18.12;85.38
71907;BME280;59781;52.090;5.030;2022-09-09T10:56:31;100577.78;;;17.71;84.24
71907;BME280;59781;52.090;5.030;2022-09-09T10:59:11;100591.31;;;17.53;85.45
71907;BME280;59781;52.090;5.030;2022-09-09T11:01:58;100584.31;;;17.63;87.81
71907;BME280;59781;52.090;5.030;2022-09-09T11:04:41;100586.38;;;17.43;87.70
71907;BME280;59781;52.090;5.030;2022-09-09T11:07:42;100586.97;;;17.45;86.64
71907;BME280;59781;52.090;5.030;2022-09-09T11:10:42;100593.03;;;17.47;89.04
71907;BME280;59781;52.090;5.030;2022-09-09T11:13:34;100594.88;;;17.53;87.31
71907;BME280;59781;52.090;5.030;2022-09-09T11:22:37;100589.47;;;17.46;90.24
71907;BME280;59781;52.090;5.030;2022-09-09T11:25:22;100585.63;;;17.54;93.07
71907;BME280;59781;52.090;5.030;2022-09-09T11:36:24;100589.75;;;16.75;99.26
71907;BME280;59781;52.090;5.030;2022-09-09T11:41:52;100592.66;;;16.80;99.71
71907;BME280;59781;52.090;5.030;2022-09-09T11:44:28;100590.13;;;16.85;99.57
71907;BME280;59781;52.090;5.030;2022-09-09T11:46:56;100586.50;;;16.53;100.00
71907;BME280;59781;52.090;5.030;2022-09-09T11:49:41;100591.28;;;17.28;98.39
71907;BME280;59781;52.090;5.030;2022-09-09T11:52:20;100583.88;;;17.10;98.61
71907;BME280;59781;52.090;5.030;2022-09-09T11:54:49;100579.56;;;17.27;99.22
71907;BME280;59781;52.090;5.030;2022-09-09T11:57:36;100583.72;;;17.30;96.65
71907;BME280;59781;52.090;5.030;2022-09-09T12:00:03;100587.50;;;17.29;97.06
71907;BME280;59781;52.090;5.030;2022-09-09T12:02:50;100581.94;;;17.17;96.79
71907;BME280;59781;52.090;5.030;2022-09-09T12:05:42;100572.94;;;17.66;94.38
71907;BME280;59781;52.090;5.030;2022-09-09T12:08:26;100579.97;;;18.17;91.42
71907;BME280;59781;52.090;5.030;2022-09-09T12:10:58;100587.78;;;18.14;91.48
71907;BME280;59781;52.090;5.030;2022-09-09T12:13:28;100575.28;;;18.91;87.83
71907;BME280;59781;52.090;5.030;2022-09-09T12:15:58;100572.56;;;18.06;87.77
71907;BME280;59781;52.090;5.030;2022-09-09T12:18:32;100579.91;;;17.87;91.06
71907;BME280;59781;52.090;5.030;2022-09-09T12:24:05;100581.25;;;17.78;89.86
71907;BME280;59781;52.090;5.030;2022-09-09T12:26:40;100579.38;;;17.97;89.05
71907;BME280;59781;52.090;5.030;2022-09-09T12:29:33;100570.25;;;18.10;89.20
71907;BME280;59781;52.090;5.030;2022-09-09T12:32:13;100572.50;;;18.31;88.59
71907;BME280;59781;52.090;5.030;2022-09-09T12:34:58;100572.47;;;18.98;84.75
71907;BME280;59781;52.090;5.030;2022-09-09T12:37:56;100578.38;;;18.95;84.38
71907;BME280;59781;52.090;5.030;2022-09-09T12:40:30;100565.03;;;18.38;83.75
71907;BME280;59781;52.090;5.030;2022-09-09T12:42:57;100569.78;;;18.31;85.22
71907;BME280;59781;52.090;5.030;2022-09-09T12:45:31;100564.97;;;18.45;86.16
71907;BME280;59781;52.090;5.030;2022-09-09T12:48:08;100574.44;;;18.42;84.67
71907;BME280;59781;52.090;5.030;2022-09-09T12:50:48;100570.91;;;18.42;83.15
71907;BME280;59781;52.090;5.030;2022-09-09T12:53:25;100554.06;;;18.45;82.28
71907;BME280;59781;52.090;5.030;2022-09-09T12:56:07;100583.63;;;18.29;84.56
71907;BME280;59781;52.090;5.030;2022-09-09T12:58:47;100564.09;;;18.32;84.55
71907;BME280;59781;52.090;5.030;2022-09-09T13:01:29;100581.34;;;18.26;85.47
71907;BME280;59781;52.090;5.030;2022-09-09T13:03:57;100588.63;;;18.32;82.99
71907;BME280;59781;52.090;5.030;2022-09-09T13:06:30;100579.88;;;18.60;82.72
71907;BME280;59781;52.090;5.030;2022-09-09T13:09:00;100581.78;;;18.60;83.42
71907;BME280;59781;52.090;5.030;2022-09-09T13:11:42;100580.72;;;18.61;82.25
71907;BME280;59781;52.090;5.030;2022-09-09T13:14:32;100579.63;;;18.80;82.10
71907;BME280;59781;52.090;5.030;2022-09-09T13:17:05;100581.81;;;18.90;81.64
71907;BME280;59781;52.090;5.030;2022-09-09T13:19:36;100586.00;;;19.16;79.37
71907;BME280;59781;52.090;5.030;2022-09-09T13:22:20;100579.47;;;18.75;80.86
71907;BME280;59781;52.090;5.030;2022-09-09T13:25:21;100578.09;;;18.84;80.99
71907;BME280;59781;52.090;5.030;2022-09-09T13:28:02;100568.03;;;18.97;81.32
71907;BME280;59781;52.090;5.030;2022-09-09T13:30:37;100571.09;;;18.58;82.68
71907;BME280;59781;52.090;5.030;2022-09-09T13:35:45;100569.88;;;18.54;86.29
71907;BME280;59781;52.090;5.030;2022-09-09T13:38:16;100563.25;;;18.80;83.91
71907;BME280;59781;52.090;5.030;2022-09-09T13:41:03;100579.66;;;18.44;86.01
71907;BME280;59781;52.090;5.030;2022-09-09T13:43:36;100576.94;;;18.25;88.17
71907;BME280;59781;52.090;5.030;2022-09-09T13:47:32;100574.16;;;17.95;91.59
71907;BME280;59781;52.090;5.030;2022-09-09T13:50:25;100582.78;;;17.67;93.83
71907;BME280;59781;52.090;5.030;2022-09-09T13:52:59;100577.09;;;17.69;95.28
71907;BME280;59781;52.090;5.030;2022-09-09T13:55:29;100590.78;;;17.37;97.72
71907;BME280;59781;52.090;5.030;2022-09-09T13:57:58;100591.06;;;17.29;98.04
71907;BME280;59781;52.090;5.030;2022-09-09T14:00:33;100583.38;;;17.19;97.28
71907;BME280;59781;52.090;5.030;2022-09-09T14:03:02;100586.94;;;17.20;98.19
71907;BME280;59781;52.090;5.030;2022-09-09T14:05:51;100582.47;;;17.32;100.00
71907;BME280;59781;52.090;5.030;2022-09-09T14:08:29;100583.72;;;17.30;97.41
71907;BME280;59781;52.090;5.030;2022-09-09T14:11:03;100581.03;;;16.98;99.77
71907;BME280;59781;52.090;5.030;2022-09-09T14:13:29;100587.63;;;17.15;100.00
71907;BME280;59781;52.090;5.030;2022-09-09T14:16:19;100592.84;;;17.17;100.00
71907;BME280;59781;52.090;5.030;2022-09-09T14:18:46;100588.97;;;17.31;99.53
71907;BME280;59781;52.090;5.030;2022-09-09T14:21:13;100574.84;;;17.66;94.68
71907;BME280;59781;52.090;5.030;2022-09-09T14:23:41;100577.72;;;17.96;95.53
71907;BME280;59781;52.090;5.030;2022-09-09T14:26:08;100576.47;;;18.65;95.61
71907;BME280;59781;52.090;5.030;2022-09-09T14:28:38;100572.00;;;19.01;92.49
71907;BME280;59781;52.090;5.030;2022-09-09T14:31:12;100565.41;;;19.43;86.08
71907;BME280;59781;52.090;5.030;2022-09-09T14:33:46;100557.44;;;19.18;84.54
71907;BME280;59781;52.090;5.030;2022-09-09T14:36:12;100571.09;;;19.30;84.63
71907;BME280;59781;52.090;5.030;2022-09-09T14:38:40;100570.19;;;18.95;81.89
71907;BME280;59781;52.090;5.030;2022-09-09T14:41:10;100572.91;;;18.65;83.94
71907;BME280;59781;52.090;5.030;2022-09-09T14:43:39;100566.28;;;18.42;87.61
71907;BME280;59781;52.090;5.030;2022-09-09T14:46:11;100567.84;;;18.50;86.36
71907;BME280;59781;52.090;5.030;2022-09-09T14:48:38;100583.63;;;18.11;88.50
71907;BME280;59781;52.090;5.030;2022-09-09T14:51:10;100583.44;;;17.88;93.79
71907;BME280;59781;52.090;5.030;2022-09-09T14:54:06;100586.06;;;18.01;94.80
71907;BME280;59781;52.090;5.030;2022-09-09T14:57:02;100581.72;;;17.68;97.74
71907;BME280;59781;52.090;5.030;2022-09-09T14:59:48;100584.19;;;17.76;95.20
71907;BME280;59781;52.090;5.030;2022-09-09T15:03:28;100589.75;;;17.63;93.74
71907;BME280;59781;52.090;5.030;2022-09-09T15:06:10;100595.56;;;17.67;97.28
71907;BME280;59781;52.090;5.030;2022-09-09T15:09:00;100598.06;;;17.68;97.23
71907;BME280;59781;52.090;5.030;2022-09-09T15:11:32;100593.44;;;17.75;94.76
71907;BME280;59781;52.090;5.030;2022-09-09T15:14:06;100599.13;;;17.92;95.01
71907;BME280;59781;52.090;5.030;2022-09-09T15:16:33;100600.81;;;17.93;95.68
71907;BME280;59781;52.090;5.030;2022-09-09T15:19:30;100597.47;;;17.91;95.39
71907;BME280;59781;52.090;5.030;2022-09-09T15:22:16;100607.09;;;18.12;95.42
71907;BME280;59781;52.090;5.030;2022-09-09T15:24:42;100608.59;;;18.08;92.90
71907;BME280;59781;52.090;5.030;2022-09-09T15:27:08;100596.72;;;18.02;92.82
71907;BME280;59781;52.090;5.030;2022-09-09T15:29:35;100600.66;;;18.25;92.12
71907;BME280;59781;52.090;5.030;2022-09-09T15:32:06;100602.31;;;18.08;93.70